Eldorado, TX

7:52 PM CDT on October 24, 2014 (GMT -0500)
Ozona Municipal | Change Station
CLOSE
Current Station
Airport
Location: Ozona,
Elevation: 2382 ft
Nearby Weather Stations

Elev 2382 ft 30.74 °N, 101.20 °W | Updated 17 minutes ago

Clear
Clear
72 °F
Feels Like 72 °F
N
5
Wind Variable Wind from South

Today
High -- | Low -- °F
--% Chance of Precip.
Yesterday
High -- | Low -- °F
Precip. -- in
7:50 AM 7:00 PM
New Moon, 1% visible
Pressure 30.17 in
Visibility 10.0 miles
Clouds Clear
Dew Point 57 °F
Humidity 60%
Rainfall 0.02 in
Snow Depth Not available.
UV 0 out of 12
Pollen 6.10 out of 12
Air Quality Not available.
Flu Activity Local Activity
METAR KOZA 250035Z AUTO 17004KT 10SM CLR 22/14 A3017 RMK AO2

More Conditions Fewer Conditions

Pressure 30.17 in
Visibility 10.0 miles
Clouds Clear
Dew Point 57 °F
Humidity 60%
Rainfall 0.02 in
Snow Depth Not available.
UV 0 out of 12
Pollen 6.10 out of 12
Air Quality Not available.
Flu Activity Local Activity
METAR KOZA 250035Z AUTO 17004KT 10SM CLR 22/14 A3017 RMK AO2

More Conditions Fewer Conditions

10-Day Weather Forecast

Almanac

Astronomy

Oct. 24, 2014 Rise Set
Actual Time 7:50 AM CDT 7:00 PM CDT
Civil Twilight 7:26 AM CDT 7:25 PM CDT
Nautical Twilight 6:58 AM CDT 7:53 PM CDT
Astronomical Twilight 6:29 AM CDT 8:21 PM CDT
Moon 8:29 AM CDT (10/24) 7:45 PM CDT (10/24)
Length of Visible Light 11h 59m
Length of Day
11h 09m
Tomorrow will be 1m 44s shorter.
New Moon, 1% of the Moon is Illuminated
Today
New Moon
Oct 30
First Quarter
Nov 6
Full
Nov 14
Last Quarter
Nov 22
New

Today's Extremes

State Highs State Lows

Community

WunderPhotos

Upload Photos

1,764,735 photos uploaded!

WunderBlogs® & News

Nearby

Snow Depth

Station Depth Elevation
No new snow has been reported.

Earthquake Activity

City Distance Mag. Time & Date
No recent earthquake activity has been reported nearby.
Minimum magnitude displayed is 2.5.

Coastal Water Temperatures

Place Temperature
No Stations Reporting

Nearby Weather Stations